Time;durP1;ratioP1;P1;durP2;ratioP2;P2;SDS_P1;SDS_P2;PMS_P1;PMS_P2;Temp;Humidity;BMP_temperature;BMP_pressure;BME280_temperature;BME280_humidity;BME280_pressure;Samples;Min_cycle;Max_cycle;Signal;HPM_P1;HPM_P2
2023/07/21 00:00:17;;;;;;;5.43;1.60;;;13.90;99.90;;;;;;5071629;28;20198;-69
2023/07/21 00:02:46;;;;;;;7.93;1.87;;;14.10;99.90;;;;;;5070673;28;20175;-69
2023/07/21 00:05:15;;;;;;;5.10;1.83;;;14.30;99.90;;;;;;5072007;28;20178;-69
2023/07/21 00:07:47;;;;;;;4.23;1.40;;;14.40;99.90;;;;;;5071293;28;20188;-69
2023/07/21 00:10:15;;;;;;;4.87;1.23;;;14.50;99.90;;;;;;5075978;28;20595;-69
2023/07/21 00:12:49;;;;;;;2.90;1.23;;;14.60;99.90;;;;;;5092096;28;20764;-68
2023/07/21 00:15:19;;;;;;;4.67;1.80;;;14.70;99.90;;;;;;5092156;28;20640;-69
2023/07/21 00:17:48;;;;;;;3.67;1.30;;;14.80;99.90;;;;;;5071413;28;20223;-70
2023/07/21 00:20:25;;;;;;;4.50;1.20;;;14.90;99.90;;;;;;5071530;28;20218;-68
2023/07/21 00:22:53;;;;;;;3.63;1.20;;;14.90;99.90;;;;;;5074781;28;20254;-68
2023/07/21 00:25:20;;;;;;;5.67;1.30;;;14.90;99.90;;;;;;5075827;28;20222;-68
2023/07/21 00:27:47;;;;;;;3.30;1.40;;;14.90;99.90;;;;;;5071352;28;20194;-68
2023/07/21 00:30:17;;;;;;;2.37;1.33;;;14.90;99.90;;;;;;5071706;28;20210;-68
2023/07/21 00:32:44;;;;;;;4.63;1.50;;;15.00;99.90;;;;;;5071503;28;20183;-68
2023/07/21 00:35:12;;;;;;;1.50;1.00;;;15.10;99.90;;;;;;5072511;28;20188;-68
2023/07/21 00:37:41;;;;;;;8.93;1.30;;;15.40;99.90;;;;;;5071032;28;20557;-69
2023/07/21 00:40:09;;;;;;;4.53;1.83;;;15.50;99.90;;;;;;5071538;28;20183;-69
2023/07/21 00:42:40;;;;;;;5.77;1.30;;;15.60;99.90;;;;;;5071516;28;20693;-69
2023/07/21 00:45:08;;;;;;;5.73;1.37;;;15.80;99.90;;;;;;5071330;28;20168;-70
2023/07/21 00:47:36;;;;;;;8.33;1.93;;;15.80;99.90;;;;;;5071215;28;20191;-69
2023/07/21 00:50:04;;;;;;;5.20;1.40;;;15.80;99.90;;;;;;5069851;28;20673;-69
2023/07/21 00:52:32;;;;;;;5.90;1.37;;;15.80;99.90;;;;;;5071474;28;20179;-69
2023/07/21 00:54:59;;;;;;;4.33;1.27;;;15.90;99.90;;;;;;5076122;28;20877;-70
2023/07/21 00:57:26;;;;;;;5.53;1.20;;;15.90;99.90;;;;;;5073285;28;20187;-69
2023/07/21 00:59:54;;;;;;;1.43;1.03;;;16.00;99.90;;;;;;5071052;28;20653;-70
2023/07/21 01:02:21;;;;;;;5.17;0.90;;;16.40;99.90;;;;;;5087951;28;20248;-69
2023/07/21 01:04:49;;;;;;;1.60;0.90;;;17.40;99.90;;;;;;5072617;28;20497;-70
2023/07/21 01:07:18;;;;;;;5.40;1.00;;;18.40;99.90;;;;;;5070793;28;20191;-69
2023/07/21 01:09:46;;;;;;;2.67;0.77;;;19.20;99.90;;;;;;5071140;28;20217;-71
2023/07/21 01:12:14;;;;;;;4.20;0.90;;;19.80;99.90;;;;;;5071114;28;20192;-69
2023/07/21 01:14:41;;;;;;;4.03;0.70;;;20.20;99.90;;;;;;5069570;28;20641;-70
2023/07/21 01:17:11;;;;;;;1.80;0.70;;;20.20;99.90;;;;;;5070762;28;20219;-70
2023/07/21 01:19:39;;;;;;;3.37;0.80;;;20.40;99.90;;;;;;5065906;28;20675;-70
2023/07/21 01:22:44;;;;;;;2.43;0.60;;;20.60;99.90;;;;;;5075135;28;20249;-69
2023/07/21 01:25:16;;;;;;;2.67;0.90;;;20.50;99.90;;;;;;5065027;28;20191;-69
2023/07/21 01:27:47;;;;;;;2.10;0.97;;;20.30;99.90;;;;;;5075064;28;20282;-70
2023/07/21 01:30:18;;;;;;;1.27;0.80;;;20.30;99.90;;;;;;5073082;28;20222;-69
2023/07/21 01:32:48;;;;;;;3.07;0.80;;;20.50;99.90;;;;;;5075050;28;20263;-68
2023/07/21 01:35:17;;;;;;;1.73;0.77;;;20.60;99.90;;;;;;5092354;28;20632;-68
2023/07/21 01:37:46;;;;;;;1.03;0.50;;;20.70;99.90;;;;;;5095012;28;20261;-71
2023/07/21 01:40:15;;;;;;;2.80;0.60;;;21.00;99.90;;;;;;5075225;28;20168;-69
2023/07/21 01:42:45;;;;;;;2.67;0.80;;;20.30;99.90;;;;;;5081969;28;20184;-71
2023/07/21 01:45:14;;;;;;;1.03;0.67;;;19.40;99.90;;;;;;5074534;28;20634;-70
2023/07/21 01:47:44;;;;;;;1.93;0.60;;;18.90;99.90;;;;;;5074622;28;20256;-71
2023/07/21 01:50:13;;;;;;;3.37;0.63;;;18.80;99.90;;;;;;5079401;28;20719;-70
2023/07/21 01:52:42;;;;;;;1.40;0.53;;;19.30;99.90;;;;;;5086440;28;20265;-70
2023/07/21 01:55:15;;;;;;;5.57;0.80;;;19.50;99.90;;;;;;5093417;28;20217;-70
2023/07/21 01:57:46;;;;;;;2.17;0.70;;;19.70;99.90;;;;;;5091678;28;22063;-70
2023/07/21 02:00:15;;;;;;;3.40;0.73;;;20.00;99.90;;;;;;5072546;28;20704;-70
2023/07/21 02:02:44;;;;;;;0.97;0.50;;;20.60;99.90;;;;;;5072976;28;20233;-71
2023/07/21 02:05:24;;;;;;;1.00;0.50;;;20.80;99.90;;;;;;5073148;28;20858;-69
2023/07/21 02:07:51;;;;;;;1.30;0.63;;;21.00;99.90;;;;;;5073974;28;20187;-70
2023/07/21 02:10:19;;;;;;;1.67;0.67;;;21.50;98.90;;;;;;5074052;28;20315;-72
2023/07/21 02:12:47;;;;;;;4.10;0.60;;;21.90;97.60;;;;;;5074218;28;20180;-71
2023/07/21 02:15:15;;;;;;;2.10;0.60;;;21.80;95.20;;;;;;5072347;28;20213;-71
2023/07/21 02:17:42;;;;;;;2.60;0.70;;;21.50;94.70;;;;;;5074938;28;20258;-69
2023/07/21 02:20:10;;;;;;;5.27;0.50;;;21.40;94.10;;;;;;5089483;28;20307;-69
2023/07/21 02:22:43;;;;;;;0.77;0.60;;;21.30;90.20;;;;;;5094119;28;20171;-69
2023/07/21 02:25:10;;;;;;;0.40;0.40;;;20.90;89.40;;;;;;5094113;28;20655;-69
2023/07/21 02:27:38;;;;;;;1.10;0.50;;;20.20;91.50;;;;;;5078380;28;20240;-69
2023/07/21 02:30:06;;;;;;;0.80;0.60;;;19.70;92.30;;;;;;5073066;28;20689;-69
2023/07/21 02:32:33;;;;;;;2.00;0.70;;;20.10;90.00;;;;;;5072226;28;20626;-69
2023/07/21 02:35:01;;;;;;;0.60;0.50;;;20.30;82.80;;;;;;5073537;28;20561;-69
2023/07/21 02:37:29;;;;;;;0.53;0.53;;;20.00;81.40;;;;;;5073257;28;20298;-70
2023/07/21 02:39:56;;;;;;;2.37;0.50;;;19.90;85.40;;;;;;5073650;28;20255;-69
2023/07/21 02:42:24;;;;;;;3.40;0.83;;;19.50;83.30;;;;;;5072521;28;20184;-70
2023/07/21 02:44:52;;;;;;;7.90;0.70;;;19.20;82.20;;;;;;5073768;28;20179;-70
2023/07/21 02:47:19;;;;;;;2.50;0.50;;;19.80;82.50;;;;;;5073325;28;20579;-70
2023/07/21 02:49:46;;;;;;;1.97;0.53;;;19.70;80.80;;;;;;5085643;28;20213;-70
2023/07/21 02:52:14;;;;;;;7.47;1.57;;;19.20;79.60;;;;;;5078338;28;20327;-69
2023/07/21 02:54:41;;;;;;;1.17;0.40;;;19.00;81.70;;;;;;5072872;28;20186;-70
2023/07/21 02:57:09;;;;;;;0.33;0.33;;;19.40;82.60;;;;;;5072292;28;20186;-70
2023/07/21 02:59:37;;;;;;;0.67;0.50;;;19.70;78.00;;;;;;5073210;28;20183;-70
2023/07/21 03:02:05;;;;;;;5.03;0.53;;;19.30;79.70;;;;;;5072563;28;20180;-69
2023/07/21 03:04:34;;;;;;;1.07;0.53;;;19.00;82.80;;;;;;5075956;28;20184;-69
2023/07/21 03:07:02;;;;;;;1.50;0.50;;;18.60;84.40;;;;;;5074763;28;20170;-70
2023/07/21 03:09:29;;;;;;;1.20;0.50;;;18.40;87.70;;;;;;5072674;28;20196;-69
2023/07/21 03:11:57;;;;;;;0.50;0.50;;;18.10;87.50;;;;;;5072745;28;20710;-69
2023/07/21 03:14:24;;;;;;;0.73;0.50;;;18.00;90.30;;;;;;5072220;28;20184;-69
2023/07/21 03:16:51;;;;;;;1.60;0.70;;;18.40;90.80;;;;;;5061923;28;20237;-71
2023/07/21 03:19:19;;;;;;;1.30;0.50;;;19.30;85.20;;;;;;5071375;28;20188;-69
2023/07/21 03:21:46;;;;;;;1.17;0.50;;;19.00;84.60;;;;;;5072185;28;20242;-70
2023/07/21 03:24:14;;;;;;;0.70;0.60;;;18.60;82.30;;;;;;5076279;28;20176;-71
2023/07/21 03:26:41;;;;;;;2.60;0.97;;;18.20;81.30;;;;;;5074113;28;20208;-70
2023/07/21 03:29:08;;;;;;;1.23;0.67;;;17.80;76.50;;;;;;5073958;28;20176;-71
2023/07/21 03:31:36;;;;;;;3.07;0.73;;;17.70;73.60;;;;;;5075967;28;20302;-71
2023/07/21 03:34:04;;;;;;;1.87;0.33;;;17.70;75.70;;;;;;5078156;28;20180;-71
2023/07/21 03:36:31;;;;;;;0.73;0.57;;;17.50;75.70;;;;;;5073951;28;20203;-72
2023/07/21 03:38:59;;;;;;;0.67;0.40;;;17.40;74.10;;;;;;5073796;28;20255;-70
2023/07/21 03:41:27;;;;;;;2.53;0.73;;;18.30;71.90;;;;;;5073860;28;20187;-70
2023/07/21 03:43:55;;;;;;;1.77;0.80;;;19.30;65.00;;;;;;5073546;28;20176;-70
2023/07/21 03:46:23;;;;;;;0.80;0.60;;;19.30;54.60;;;;;;5073854;28;20198;-71
2023/07/21 03:48:50;;;;;;;1.03;0.70;;;19.80;52.70;;;;;;5072336;28;20187;-70
2023/07/21 03:51:18;;;;;;;2.50;0.60;;;20.30;47.60;;;;;;5073583;28;20622;-69
2023/07/21 03:53:46;;;;;;;4.23;0.50;;;20.50;42.30;;;;;;5073703;28;20164;-70
2023/07/21 03:56:14;;;;;;;4.13;0.83;;;20.80;42.20;;;;;;5074075;28;20566;-72
2023/07/21 03:58:42;;;;;;;6.67;0.60;;;20.90;39.60;;;;;;5073685;28;20179;-70
2023/07/21 04:01:10;;;;;;;4.60;0.60;;;21.00;38.30;;;;;;5076554;28;20256;-71
2023/07/21 04:03:38;;;;;;;1.47;0.43;;;21.00;38.10;;;;;;5078697;28;20683;-70
2023/07/21 04:06:09;;;;;;;0.50;0.40;;;20.90;36.20;;;;;;5078438;28;20190;-70
2023/07/21 04:08:36;;;;;;;1.13;0.50;;;21.30;36.30;;;;;;5062284;28;20645;-69
2023/07/21 04:11:04;;;;;;;0.63;0.43;;;21.80;34.40;;;;;;5093579;28;20563;-71
2023/07/21 04:13:32;;;;;;;1.17;0.73;;;21.80;31.50;;;;;;5090389;28;20172;-70
2023/07/21 04:16:00;;;;;;;1.43;0.70;;;21.90;31.50;;;;;;5076902;28;20278;-70
2023/07/21 04:18:28;;;;;;;0.93;0.40;;;21.60;29.80;;;;;;5073095;28;20184;-70
2023/07/21 04:20:56;;;;;;;0.30;0.30;;;20.80;29.90;;;;;;5073494;28;20194;-69
2023/07/21 04:23:27;;;;;;;0.70;0.50;;;20.20;31.60;;;;;;5071894;28;20222;-68
2023/07/21 04:25:55;;;;;;;0.90;0.73;;;19.80;30.30;;;;;;5072569;28;20194;-71
2023/07/21 04:28:22;;;;;;;1.23;0.60;;;19.40;29.60;;;;;;5073040;28;20176;-71
2023/07/21 04:30:56;;;;;;;1.40;0.50;;;19.00;29.20;;;;;;5071647;28;20226;-69
2023/07/21 04:33:24;;;;;;;5.30;0.57;;;18.80;30.90;;;;;;5072041;28;20180;-70
2023/07/21 04:35:52;;;;;;;0.80;0.50;;;18.80;30.10;;;;;;5073016;28;20180;-70
2023/07/21 04:38:20;;;;;;;2.33;1.53;;;19.10;33.30;;;;;;5072786;28;20186;-70
2023/07/21 04:40:47;;;;;;;2.13;0.80;;;19.60;32.50;;;;;;5073062;28;20179;-71
2023/07/21 04:43:16;;;;;;;2.23;0.60;;;20.00;29.60;;;;;;5073035;28;20178;-70
2023/07/21 04:45:44;;;;;;;0.73;0.53;;;20.30;29.60;;;;;;5072665;28;20252;-71
2023/07/21 04:48:12;;;;;;;1.50;0.60;;;20.50;32.80;;;;;;5072555;28;20183;-70
2023/07/21 04:50:42;;;;;;;0.83;0.50;;;20.70;29.10;;;;;;5084927;28;20233;-71
2023/07/21 04:53:10;;;;;;;0.53;0.40;;;20.80;30.60;;;;;;5093155;28;20179;-72
2023/07/21 04:55:39;;;;;;;2.37;0.57;;;20.90;26.60;;;;;;5075403;28;20188;-72
2023/07/21 04:58:08;;;;;;;3.00;0.60;;;20.80;27.80;;;;;;5072727;28;20191;-71
2023/07/21 05:00:35;;;;;;;1.27;0.40;;;20.60;27.90;;;;;;5073075;28;20179;-70
2023/07/21 05:03:03;;;;;;;2.03;0.50;;;20.40;28.40;;;;;;5073261;28;20176;-72
2023/07/21 05:05:34;;;;;;;0.60;0.50;;;20.40;28.50;;;;;;5073065;28;20675;-72
2023/07/21 05:08:02;;;;;;;5.07;0.83;;;20.60;30.00;;;;;;5072667;28;20186;-69
2023/07/21 05:10:30;;;;;;;0.63;0.60;;;20.80;30.10;;;;;;5072624;28;20207;-69
2023/07/21 05:13:00;;;;;;;0.80;0.40;;;20.60;28.40;;;;;;5073801;28;20183;-70
2023/07/21 05:15:27;;;;;;;1.73;0.50;;;20.50;28.70;;;;;;5056683;28;20190;-70
2023/07/21 05:17:56;;;;;;;1.83;0.63;;;20.60;29.10;;;;;;5070309;28;20220;-71
2023/07/21 05:20:24;;;;;;;2.90;0.90;;;20.50;26.90;;;;;;5072377;28;20242;-71
2023/07/21 05:22:52;;;;;;;1.93;0.40;;;20.40;26.80;;;;;;5070590;28;20215;-69
2023/07/21 05:25:20;;;;;;;1.53;0.60;;;20.10;27.70;;;;;;5070805;28;20501;-68
2023/07/21 05:27:51;;;;;;;0.37;0.37;;;20.10;28.30;;;;;;5070730;28;20176;-70
2023/07/21 05:30:19;;;;;;;0.40;0.40;;;19.80;27.50;;;;;;5070981;28;20215;-69
2023/07/21 05:32:47;;;;;;;1.33;0.60;;;19.30;27.70;;;;;;5071339;28;20212;-71
2023/07/21 05:35:15;;;;;;;0.50;0.50;;;19.00;27.90;;;;;;5071075;28;20173;-69
2023/07/21 05:37:42;;;;;;;1.23;0.83;;;19.00;28.00;;;;;;5070484;28;20247;-71
2023/07/21 05:40:11;;;;;;;1.53;0.50;;;19.10;27.30;;;;;;5071030;28;20269;-71
2023/07/21 05:42:39;;;;;;;1.50;0.63;;;19.10;28.40;;;;;;5069397;28;20542;-72
2023/07/21 05:45:09;;;;;;;1.10;0.50;;;19.20;28.00;;;;;;5070670;28;20180;-69
2023/07/21 05:47:37;;;;;;;1.47;0.40;;;19.10;28.20;;;;;;5070472;28;20655;-70
2023/07/21 05:50:05;;;;;;;1.70;0.50;;;19.10;27.90;;;;;;5071111;28;20258;-69
2023/07/21 05:52:32;;;;;;;0.97;0.60;;;19.00;27.20;;;;;;5069316;28;20187;-70
2023/07/21 05:55:01;;;;;;;3.50;0.80;;;19.10;29.80;;;;;;5070904;28;20177;-69
2023/07/21 05:57:29;;;;;;;5.33;0.90;;;19.10;78.00;;;;;;5069669;28;20180;-69
2023/07/21 05:59:58;;;;;;;1.00;0.60;;;18.80;99.90;;;;;;5070809;28;20548;-70
2023/07/21 06:02:25;;;;;;;2.27;0.93;;;18.60;99.90;;;;;;5069308;28;20237;-69
2023/07/21 06:04:56;;;;;;;1.83;0.80;;;18.50;99.90;;;;;;5070644;28;20645;-70
2023/07/21 06:07:24;;;;;;;4.40;0.90;;;18.40;99.90;;;;;;5073174;28;20308;-70
2023/07/21 06:09:51;;;;;;;3.00;1.10;;;18.20;99.90;;;;;;5054288;28;20662;-69
2023/07/21 06:12:19;;;;;;;2.83;0.80;;;18.10;99.90;;;;;;5054150;28;20180;-70
2023/07/21 06:14:47;;;;;;;2.13;0.83;;;17.90;99.90;;;;;;5060460;28;20182;-69
2023/07/21 06:17:15;;;;;;;3.10;0.73;;;17.90;99.90;;;;;;5073983;28;20235;-68
2023/07/21 06:19:43;;;;;;;7.47;0.70;;;17.90;99.90;;;;;;5073784;28;20224;-70
2023/07/21 06:22:11;;;;;;;2.10;0.80;;;17.70;99.90;;;;;;5073922;28;20259;-70
2023/07/21 06:24:39;;;;;;;2.70;0.80;;;17.70;99.90;;;;;;5073962;28;20168;-70
2023/07/21 06:27:07;;;;;;;3.23;0.70;;;17.70;99.90;;;;;;5073864;28;20179;-70
2023/07/21 06:29:34;;;;;;;1.43;0.73;;;17.60;99.90;;;;;;5073103;28;20192;-69
2023/07/21 06:32:02;;;;;;;5.43;0.93;;;17.50;99.90;;;;;;5073746;28;20181;-69
2023/07/21 06:34:30;;;;;;;4.00;0.90;;;17.30;99.90;;;;;;5073547;28;20181;-70
2023/07/21 06:36:58;;;;;;;2.53;0.87;;;17.20;99.90;;;;;;5073596;28;20186;-72
2023/07/21 06:39:25;;;;;;;2.67;1.30;;;17.10;99.90;;;;;;5073502;28;20197;-72
2023/07/21 06:41:53;;;;;;;5.53;1.00;;;17.00;99.90;;;;;;5073576;28;20665;-71
2023/07/21 06:44:21;;;;;;;3.50;1.10;;;16.90;99.90;;;;;;5073714;28;20168;-71
2023/07/21 06:46:51;;;;;;;5.23;1.10;;;16.70;99.90;;;;;;5071813;28;20600;-69
2023/07/21 06:49:19;;;;;;;2.70;0.70;;;16.60;99.90;;;;;;5073412;28;20188;-69
2023/07/21 06:51:47;;;;;;;1.97;1.00;;;16.50;99.90;;;;;;5073311;28;20223;-69
2023/07/21 06:54:14;;;;;;;1.37;0.70;;;16.40;99.90;;;;;;5072086;28;20175;-70
2023/07/21 06:56:42;;;;;;;2.60;0.90;;;16.40;99.90;;;;;;5073369;28;20225;-69
2023/07/21 06:59:10;;;;;;;2.70;0.90;;;16.30;99.90;;;;;;5072898;28;20188;-68
2023/07/21 07:01:38;;;;;;;3.07;0.90;;;16.30;99.90;;;;;;5072961;28;20183;-70
2023/07/21 07:04:05;;;;;;;2.43;1.20;;;16.20;99.90;;;;;;5072065;28;20591;-70
2023/07/21 07:06:33;;;;;;;3.70;1.20;;;16.10;99.90;;;;;;5073070;28;20187;-71
2023/07/21 07:09:01;;;;;;;2.07;0.90;;;16.00;99.90;;;;;;5072463;28;20192;-69
2023/07/21 07:11:29;;;;;;;1.87;0.90;;;15.90;99.90;;;;;;5073935;28;20208;-69
2023/07/21 07:13:57;;;;;;;6.20;1.00;;;15.90;99.90;;;;;;5074497;28;20176;-70
2023/07/21 07:16:24;;;;;;;0.70;0.70;;;15.80;99.90;;;;;;5074157;28;20589;-70
2023/07/21 07:18:55;;;;;;;3.13;0.83;;;15.60;99.90;;;;;;5060754;28;20183;-71
2023/07/21 07:21:24;;;;;;;2.93;1.03;;;15.40;99.90;;;;;;5070455;28;20180;-68
2023/07/21 07:23:52;;;;;;;1.40;0.80;;;15.40;99.90;;;;;;5071085;28;20222;-69
2023/07/21 07:26:21;;;;;;;2.87;0.83;;;15.40;99.90;;;;;;5071136;28;20566;-70
2023/07/21 07:28:49;;;;;;;4.50;1.07;;;15.30;99.90;;;;;;5072440;28;20225;-69
2023/07/21 07:31:17;;;;;;;4.73;0.80;;;15.30;99.90;;;;;;5070982;28;20296;-69
2023/07/21 07:33:45;;;;;;;2.70;1.00;;;15.20;99.90;;;;;;5072415;28;20793;-69
2023/07/21 07:36:13;;;;;;;1.10;0.70;;;15.10;99.90;;;;;;5072427;28;20253;-69
2023/07/21 07:38:41;;;;;;;1.27;0.80;;;14.90;99.90;;;;;;5072340;28;20690;-69
2023/07/21 07:41:09;;;;;;;3.07;1.60;;;14.80;99.90;;;;;;5072391;28;20239;-69
2023/07/21 07:43:38;;;;;;;4.20;1.80;;;14.70;99.90;;;;;;5072436;28;20187;-69
2023/07/21 07:46:07;;;;;;;2.63;1.43;;;14.50;99.90;;;;;;5072492;28;20286;-69
2023/07/21 07:48:35;;;;;;;3.70;1.50;;;14.50;99.90;;;;;;5072338;28;20267;-68
2023/07/21 07:51:07;;;;;;;6.80;1.60;;;14.40;99.90;;;;;;5071048;28;20219;-69
2023/07/21 07:53:36;;;;;;;2.60;1.73;;;14.30;99.90;;;;;;5072519;28;20168;-69
2023/07/21 07:56:05;;;;;;;3.67;2.90;;;14.10;99.90;;;;;;5071850;28;20191;-70
2023/07/21 07:58:33;;;;;;;4.03;2.07;;;14.10;99.90;;;;;;5072222;28;20176;-68
2023/07/21 08:01:01;;;;;;;6.53;2.90;;;14.00;99.90;;;;;;5071852;28;20226;-68
2023/07/21 08:03:29;;;;;;;3.17;2.23;;;13.90;99.90;;;;;;5052319;28;20192;-68
2023/07/21 08:05:58;;;;;;;5.73;3.50;;;13.80;99.90;;;;;;5064765;28;20188;-69
2023/07/21 08:08:26;;;;;;;5.73;3.00;;;13.70;99.90;;;;;;5065927;28;20187;-69
2023/07/21 08:10:54;;;;;;;5.57;2.30;;;13.50;99.90;;;;;;5071669;28;20557;-69
2023/07/21 08:13:22;;;;;;;6.20;2.10;;;13.40;99.90;;;;;;5070415;28;20212;-69
2023/07/21 08:15:49;;;;;;;3.23;2.00;;;13.30;99.90;;;;;;5071213;28;20256;-69
2023/07/21 08:18:17;;;;;;;4.03;2.73;;;13.20;99.90;;;;;;5071317;28;20586;-68
2023/07/21 08:20:45;;;;;;;8.43;3.30;;;13.10;99.90;;;;;;5071829;28;20193;-70
2023/07/21 08:23:12;;;;;;;6.17;2.83;;;13.00;99.90;;;;;;5070379;28;20268;-69
2023/07/21 08:25:41;;;;;;;5.20;2.70;;;13.00;99.90;;;;;;5071567;28;20608;-69
2023/07/21 08:28:09;;;;;;;5.47;2.27;;;12.90;99.90;;;;;;5071442;28;20183;-70
2023/07/21 08:30:37;;;;;;;3.50;2.37;;;12.80;99.90;;;;;;5070278;28;20253;-69
2023/07/21 08:33:04;;;;;;;4.13;1.83;;;12.70;99.90;;;;;;5071731;28;20186;-68
2023/07/21 08:35:33;;;;;;;3.90;2.20;;;12.50;99.90;;;;;;5071719;28;20176;-68
2023/07/21 08:38:00;;;;;;;2.53;1.90;;;12.40;99.90;;;;;;5082112;28;20642;-68
2023/07/21 08:40:29;;;;;;;3.60;1.87;;;12.30;99.90;;;;;;5080749;28;20183;-68
2023/07/21 08:42:58;;;;;;;7.00;2.43;;;12.30;99.90;;;;;;5080590;28;20191;-67
2023/07/21 08:45:31;;;;;;;5.20;2.10;;;12.10;99.90;;;;;;5077855;28;20652;-68
2023/07/21 08:48:01;;;;;;;7.27;1.93;;;12.00;99.90;;;;;;5080330;28;20284;-69
2023/07/21 08:50:29;;;;;;;3.10;2.00;;;12.00;99.90;;;;;;5071496;28;20674;-69
2023/07/21 08:52:57;;;;;;;2.53;1.80;;;11.90;99.90;;;;;;5071407;28;20229;-69
2023/07/21 08:55:25;;;;;;;4.90;1.83;;;11.80;99.90;;;;;;5071527;28;20233;-69
2023/07/21 08:58:00;;;;;;;4.07;2.20;;;11.80;99.90;;;;;;5071394;28;20182;-69
2023/07/21 09:00:28;;;;;;;5.70;2.93;;;11.70;99.90;;;;;;5071471;28;20190;-69
2023/07/21 09:03:01;;;;;;;9.00;3.30;;;11.70;99.90;;;;;;5071401;28;20206;-68
2023/07/21 09:05:29;;;;;;;6.37;3.33;;;11.60;99.90;;;;;;5071250;28;20269;-69
2023/07/21 09:07:57;;;;;;;5.77;3.87;;;11.50;99.90;;;;;;5071225;28;20194;-68
2023/07/21 09:10:35;;;;;;;6.70;4.00;;;11.50;99.90;;;;;;5071183;28;20263;-69
2023/07/21 09:13:13;;;;;;;6.63;4.03;;;11.40;99.90;;;;;;5071161;28;20168;-69
2023/07/21 09:15:49;;;;;;;7.77;3.17;;;11.30;99.90;;;;;;5071235;28;20544;-69
2023/07/21 09:18:17;;;;;;;7.10;3.53;;;11.30;99.90;;;;;;5071138;28;20198;-69
2023/07/21 09:20:49;;;;;;;8.20;3.40;;;11.20;99.90;;;;;;5075193;28;20222;-69
2023/07/21 09:23:21;;;;;;;8.30;3.93;;;11.20;99.90;;;;;;5052485;28;20198;-68
2023/07/21 09:25:57;;;;;;;5.70;4.10;;;11.20;99.90;;;;;;5052651;28;20190;-68
2023/07/21 09:28:41;;;;;;;6.90;3.97;;;11.10;99.90;;;;;;5052427;28;20213;-68
2023/07/21 09:31:09;;;;;;;8.63;4.47;;;11.10;99.90;;;;;;5068177;28;20224;-68
2023/07/21 09:36:59;;;;;;;9.70;4.77;;;11.00;99.90;;;;;;5070578;28;20643;-68
2023/07/21 09:39:26;;;;;;;14.23;5.70;;;10.90;99.90;;;;;;5072019;28;20654;-68
2023/07/21 09:41:54;;;;;;;12.40;4.97;;;10.80;99.90;;;;;;5075701;28;20192;-68
2023/07/21 09:44:23;;;;;;;9.87;4.50;;;10.80;99.90;;;;;;5079328;28;20183;-67
2023/07/21 09:46:53;;;;;;;10.90;6.20;;;10.70;99.90;;;;;;5075802;28;20186;-69
2023/07/21 09:49:20;;;;;;;10.67;6.47;;;10.70;99.90;;;;;;5075420;28;20193;-68
2023/07/21 09:51:51;;;;;;;14.20;7.13;;;10.80;99.90;;;;;;5075054;28;20221;-67
2023/07/21 09:54:24;;;;;;;15.17;8.20;;;10.80;99.90;;;;;;5075098;28;20186;-68
2023/07/21 09:56:56;;;;;;;16.17;9.93;;;10.80;99.90;;;;;;5075345;28;20247;-68
2023/07/21 09:59:24;;;;;;;10.97;7.50;;;10.80;99.90;;;;;;5075359;28;20185;-68
2023/07/21 10:01:53;;;;;;;11.50;5.33;;;10.80;99.90;;;;;;5074336;28;20624;-68
2023/07/21 10:04:23;;;;;;;8.27;6.43;;;10.90;99.90;;;;;;5075603;28;20616;-68
2023/07/21 10:06:53;;;;;;;9.53;6.97;;;10.90;99.90;;;;;;5074746;28;20184;-68
2023/07/21 10:09:21;;;;;;;9.93;6.13;;;11.00;99.90;;;;;;5075255;28;20576;-68
2023/07/21 10:11:49;;;;;;;8.10;4.80;;;11.10;99.90;;;;;;5074822;28;20244;-68
2023/07/21 10:14:36;;;;;;;12.13;4.27;;;11.10;99.90;;;;;;5074330;28;20184;-67
2023/07/21 10:17:03;;;;;;;8.23;4.13;;;11.20;99.90;;;;;;5075112;28;20229;-68
2023/07/21 10:19:39;;;;;;;7.43;4.90;;;11.20;99.90;;;;;;5077027;28;20191;-68
2023/07/21 10:22:09;;;;;;;6.30;3.80;;;11.30;99.90;;;;;;5080285;28;20730;-67
2023/07/21 10:24:54;;;;;;;8.03;4.20;;;11.30;99.90;;;;;;5084503;28;20263;-67
2023/07/21 10:27:27;;;;;;;9.07;3.97;;;11.30;99.90;;;;;;5081513;28;20260;-67
2023/07/21 10:30:15;;;;;;;6.53;3.73;;;11.30;99.90;;;;;;5098300;28;20211;-68
2023/07/21 10:32:43;;;;;;;8.13;3.27;;;11.30;99.90;;;;;;5096763;28;20721;-70
2023/07/21 10:35:38;;;;;;;7.10;3.07;;;11.50;99.90;;;;;;5065569;28;20169;-68
2023/07/21 10:38:15;;;;;;;6.70;3.00;;;11.50;99.90;;;;;;5073285;28;20190;-68
2023/07/21 10:40:44;;;;;;;9.37;3.43;;;11.40;99.90;;;;;;5071929;28;20182;-68
2023/07/21 10:43:12;;;;;;;7.07;2.90;;;11.50;99.90;;;;;;5073382;28;20177;-68
2023/07/21 10:45:40;;;;;;;7.33;3.13;;;11.50;99.90;;;;;;5073099;28;20231;-68
2023/07/21 10:48:13;;;;;;;6.33;3.53;;;11.50;99.90;;;;;;5073291;28;20253;-69
2023/07/21 10:50:58;;;;;;;6.10;3.23;;;11.50;99.90;;;;;;5082128;28;20280;-67
2023/07/21 10:53:26;;;;;;;9.17;3.57;;;11.60;99.90;;;;;;5072215;28;20507;-70
2023/07/21 10:55:55;;;;;;;7.47;3.27;;;11.50;99.90;;;;;;5071756;28;20184;-68
2023/07/21 10:58:23;;;;;;;5.23;2.93;;;11.40;99.90;;;;;;5073146;28;20177;-69
2023/07/21 11:00:53;;;;;;;6.57;2.70;;;11.50;99.90;;;;;;5073157;28;20184;-69
2023/07/21 11:03:21;;;;;;;5.20;2.93;;;11.50;99.90;;;;;;5071717;28;20554;-68
2023/07/21 11:05:48;;;;;;;4.53;2.50;;;11.50;99.90;;;;;;5072928;28;20211;-68
2023/07/21 11:08:36;;;;;;;7.00;2.70;;;11.50;99.90;;;;;;5072746;28;20168;-69
2023/07/21 11:11:05;;;;;;;7.47;3.30;;;11.50;99.90;;;;;;5072987;28;20684;-68
2023/07/21 11:13:33;;;;;;;3.20;2.67;;;11.50;99.90;;;;;;5072799;28;20174;-69
2023/07/21 11:16:02;;;;;;;5.10;2.73;;;11.50;99.90;;;;;;5072222;28;20181;-69
2023/07/21 11:18:30;;;;;;;6.90;2.80;;;11.40;99.90;;;;;;5072827;28;20181;-68
2023/07/21 11:20:58;;;;;;;5.83;2.07;;;11.30;99.90;;;;;;5074797;28;20323;-68
2023/07/21 11:23:31;;;;;;;5.03;2.60;;;11.30;99.90;;;;;;5072669;28;20187;-69
2023/07/21 11:26:10;;;;;;;5.10;2.60;;;11.30;99.90;;;;;;5072621;28;20182;-68
2023/07/21 11:28:43;;;;;;;9.10;4.50;;;11.20;99.90;;;;;;5072643;28;20179;-69
2023/07/21 11:31:15;;;;;;;15.27;8.80;;;11.20;99.90;;;;;;5072535;28;20225;-68
2023/07/21 11:33:43;;;;;;;10.97;4.53;;;11.30;99.90;;;;;;5072178;28;20316;-69
2023/07/21 11:36:22;;;;;;;4.43;2.27;;;11.40;99.90;;;;;;5071146;28;20565;-69
2023/07/21 11:39:11;;;;;;;3.77;2.23;;;11.40;99.90;;;;;;5072557;28;20184;-69
2023/07/21 11:41:41;;;;;;;5.80;2.63;;;11.40;99.90;;;;;;5072212;28;20274;-68
2023/07/21 11:44:44;;;;;;;5.43;2.20;;;11.50;99.90;;;;;;5072380;28;20182;-69
2023/07/21 11:47:13;;;;;;;4.10;2.17;;;11.70;99.90;;;;;;5068333;28;20203;-69
2023/07/21 11:49:46;;;;;;;4.53;2.40;;;11.90;99.90;;;;;;5071761;28;20189;-68
2023/07/21 11:52:26;;;;;;;4.27;2.30;;;12.00;99.90;;;;;;5072014;28;20186;-70
2023/07/21 11:54:57;;;;;;;6.70;2.57;;;12.00;99.90;;;;;;5071610;28;20187;-67
2023/07/21 11:57:27;;;;;;;3.43;1.87;;;12.00;99.90;;;;;;5072060;28;20638;-68
2023/07/21 11:59:55;;;;;;;3.03;1.80;;;11.90;99.90;;;;;;5071938;28;20231;-68
2023/07/21 12:02:23;;;;;;;5.47;2.33;;;11.80;99.90;;;;;;5071840;28;20187;-69
2023/07/21 12:04:52;;;;;;;3.00;1.73;;;11.80;99.90;;;;;;5071941;28;20173;-70
2023/07/21 12:07:20;;;;;;;5.40;1.93;;;11.80;99.90;;;;;;5071715;28;20408;-68
2023/07/21 12:09:48;;;;;;;2.23;1.80;;;11.80;99.90;;;;;;5071315;28;20181;-68
2023/07/21 12:12:16;;;;;;;6.03;2.13;;;11.80;99.90;;;;;;5070516;28;20676;-70
2023/07/21 12:14:44;;;;;;;2.60;1.70;;;11.70;99.90;;;;;;5071241;28;20173;-68
2023/07/21 12:17:15;;;;;;;3.67;1.90;;;11.60;99.90;;;;;;5063603;28;20231;-68
2023/07/21 12:19:43;;;;;;;2.70;1.67;;;11.60;99.90;;;;;;5071462;28;20637;-69
2023/07/21 12:22:11;;;;;;;3.90;1.57;;;11.60;99.90;;;;;;5069699;28;20200;-69
2023/07/21 12:24:38;;;;;;;3.10;1.40;;;11.50;99.90;;;;;;5071363;28;20189;-68
2023/07/21 12:27:06;;;;;;;5.00;1.60;;;11.60;99.90;;;;;;5070776;28;20186;-69
2023/07/21 12:29:34;;;;;;;2.67;1.40;;;11.60;99.90;;;;;;5070886;28;20241;-69
2023/07/21 12:32:02;;;;;;;2.30;1.37;;;11.60;99.90;;;;;;5051409;28;20205;-68
2023/07/21 12:34:30;;;;;;;1.63;1.53;;;11.60;99.90;;;;;;5067242;28;20494;-68
2023/07/21 12:36:58;;;;;;;2.70;1.43;;;11.60;99.90;;;;;;5070679;28;20234;-69
2023/07/21 12:39:25;;;;;;;3.13;1.43;;;11.60;99.90;;;;;;5070419;28;20188;-68
2023/07/21 12:41:53;;;;;;;2.00;1.30;;;11.60;99.90;;;;;;5070686;28;20186;-67
2023/07/21 12:44:21;;;;;;;2.80;1.90;;;11.60;99.90;;;;;;5070756;28;20195;-68
2023/07/21 12:46:49;;;;;;;2.80;1.17;;;11.60;99.90;;;;;;5070493;28;20586;-69
2023/07/21 12:49:17;;;;;;;5.07;1.77;;;11.60;99.90;;;;;;5069994;28;20528;-70
2023/07/21 12:51:45;;;;;;;1.87;1.33;;;11.50;99.90;;;;;;5069911;28;20232;-69
2023/07/21 12:54:13;;;;;;;3.80;1.80;;;11.60;99.90;;;;;;5071032;28;20645;-69
2023/07/21 12:56:41;;;;;;;1.50;1.20;;;11.60;99.90;;;;;;5070760;28;20348;-71
2023/07/21 12:59:08;;;;;;;3.60;1.40;;;11.60;99.90;;;;;;5070544;28;20186;-68